createdAt,value
2017-05-11T00:00:01.756Z,818.52
2017-05-11T00:00:06.076Z,818.49
2017-05-11T00:00:10.271Z,818.52
2017-05-11T00:00:14.701Z,818.51
2017-05-11T00:00:19.140Z,818.48
2017-05-11T00:00:23.455Z,818.53
2017-05-11T00:00:27.877Z,818.51
2017-05-11T00:00:32.194Z,818.53
2017-05-11T00:00:36.626Z,818.44
2017-05-11T00:00:40.817Z,818.48
2017-05-11T00:00:45.243Z,818.52
2017-05-11T00:00:49.550Z,818.52
2017-05-11T00:00:53.751Z,818.48
2017-05-11T00:00:58.181Z,818.47
2017-05-11T00:01:02.966Z,818.49
2017-05-11T00:01:07.400Z,818.46
2017-05-11T00:01:11.864Z,818.51
2017-05-11T00:01:16.290Z,818.49
2017-05-11T00:01:20.722Z,818.5
2017-05-11T00:01:25.149Z,818.52
2017-05-11T00:01:29.573Z,818.49
2017-05-11T00:01:33.877Z,818.51
2017-05-11T00:01:38.311Z,818.49
2017-05-11T00:01:42.738Z,818.47
2017-05-11T00:01:47.167Z,818.48
2017-05-11T00:01:51.594Z,818.47
2017-05-11T00:01:56.064Z,818.44
2017-05-11T00:02:00.493Z,818.51
2017-05-11T00:02:04.804Z,818.46
2017-05-11T00:02:08.992Z,818.51
2017-05-11T00:02:13.424Z,818.47
2017-05-11T00:02:17.853Z,818.45
2017-05-11T00:02:22.280Z,818.46
2017-05-11T00:02:26.705Z,818.45
2017-05-11T00:02:30.785Z,818.46
2017-05-11T00:02:35.260Z,818.45
2017-05-11T00:02:39.687Z,818.45
2017-05-11T00:02:44.127Z,818.46
2017-05-11T00:02:48.437Z,818.49
2017-05-11T00:02:52.868Z,818.44
2017-05-11T00:02:57.311Z,818.47
2017-05-11T00:03:01.889Z,818.45
2017-05-11T00:03:06.315Z,818.4
2017-05-11T00:03:10.748Z,818.41
2017-05-11T00:03:15.183Z,818.38
2017-05-11T00:03:19.671Z,818.4
2017-05-11T00:03:23.754Z,818.4
2017-05-11T00:03:28.190Z,818.4
2017-05-11T00:03:32.628Z,818.35
2017-05-11T00:03:37.062Z,818.38
2017-05-11T00:03:41.493Z,818.41
2017-05-11T00:03:45.922Z,818.41
2017-05-11T00:03:50.365Z,818.34
2017-05-11T00:03:54.559Z,818.38
2017-05-11T00:03:58.988Z,818.37
2017-05-11T00:04:03.716Z,818.35
2017-05-11T00:04:08.152Z,818.36
2017-05-11T00:04:12.586Z,818.36
2017-05-11T00:04:17.014Z,818.34
2017-05-11T00:04:21.325Z,818.35
2017-05-11T00:04:25.694Z,818.34
2017-05-11T00:04:30.124Z,818.3
2017-05-11T00:04:34.554Z,818.3
2017-05-11T00:04:38.983Z,818.29
2017-05-11T00:04:43.421Z,818.3
2017-05-11T00:04:47.847Z,818.29
2017-05-11T00:04:52.155Z,818.27
2017-05-11T00:04:56.584Z,818.29
2017-05-11T00:05:01.030Z,818.27
2017-05-11T00:05:05.436Z,818.25
2017-05-11T00:05:09.861Z,818.24
2017-05-11T00:05:14.287Z,818.26
2017-05-11T00:05:18.721Z,818.24
2017-05-11T00:05:22.913Z,818.21
2017-05-11T00:05:27.218Z,818.23
2017-05-11T00:05:31.648Z,818.21
2017-05-11T00:05:36.126Z,818.19
2017-05-11T00:05:40.556Z,818.19
2017-05-11T00:05:44.985Z,818.18
2017-05-11T00:05:49.420Z,818.16
2017-05-11T00:05:53.741Z,818.2
2017-05-11T00:05:58.171Z,818.17
2017-05-11T00:06:02.482Z,818.15
2017-05-11T00:06:06.919Z,818.17
2017-05-11T00:06:11.111Z,818.15
2017-05-11T00:06:15.540Z,818.16
2017-05-11T00:06:19.850Z,818.12
2017-05-11T00:06:24.276Z,818.14
2017-05-11T00:06:28.697Z,818.14
2017-05-11T00:06:33.007Z,818.12
2017-05-11T00:06:37.439Z,818.09
2017-05-11T00:06:41.874Z,818.08
2017-05-11T00:06:46.300Z,818.07
2017-05-11T00:06:50.761Z,818.1
2017-05-11T00:06:55.197Z,818.08
2017-05-11T00:06:59.622Z,818.07
2017-05-11T00:07:03.936Z,818.08
2017-05-11T00:07:08.363Z,818.02
2017-05-11T00:07:12.795Z,818.03
2017-05-11T00:07:16.983Z,818.03
2017-05-11T00:07:21.298Z,818.03
2017-05-11T00:07:25.744Z,818
2017-05-11T00:07:30.175Z,817.99
2017-05-11T00:07:34.602Z,817.98
2017-05-11T00:07:39.037Z,817.97
2017-05-11T00:07:43.479Z,817.99
2017-05-11T00:07:47.908Z,817.97
2017-05-11T00:07:52.218Z,817.96
2017-05-11T00:07:56.649Z,817.96
2017-05-11T00:08:01.086Z,817.95
2017-05-11T00:08:05.770Z,817.96
2017-05-11T00:08:10.078Z,817.9
2017-05-11T00:08:14.389Z,817.89
2017-05-11T00:08:18.823Z,817.91
2017-05-11T00:08:23.258Z,817.91
2017-05-11T00:08:27.573Z,817.89
2017-05-11T00:08:31.999Z,817.89
2017-05-11T00:08:36.437Z,817.88
2017-05-11T00:08:40.865Z,817.87
2017-05-11T00:08:45.296Z,817.87
2017-05-11T00:08:49.727Z,817.84
2017-05-11T00:08:53.857Z,817.84
2017-05-11T00:08:58.292Z,817.82
2017-05-11T00:09:02.722Z,817.8
2017-05-11T00:09:07.034Z,817.83
2017-05-11T00:09:11.350Z,817.82
2017-05-11T00:09:15.785Z,817.79
2017-05-11T00:09:20.226Z,817.8
2017-05-11T00:09:24.659Z,817.81
2017-05-11T00:09:28.970Z,817.78
2017-05-11T00:09:33.390Z,817.8
2017-05-11T00:09:37.827Z,817.78
2017-05-11T00:09:42.266Z,817.76
2017-05-11T00:09:46.696Z,817.79
2017-05-11T00:09:51.122Z,817.77
2017-05-11T00:09:55.317Z,817.76
2017-05-11T00:09:59.634Z,817.73
2017-05-11T00:10:04.070Z,817.76
2017-05-11T00:10:08.262Z,817.73
2017-05-11T00:10:12.697Z,817.72
2017-05-11T00:10:17.164Z,817.71
2017-05-11T00:10:21.594Z,817.7
2017-05-11T00:10:26.018Z,817.69
2017-05-11T00:10:30.449Z,817.67
2017-05-11T00:10:34.879Z,817.68
2017-05-11T00:10:39.304Z,817.69
2017-05-11T00:10:43.734Z,817.67
2017-05-11T00:10:48.171Z,817.68
2017-05-11T00:10:52.629Z,817.65
2017-05-11T00:10:57.058Z,817.69
2017-05-11T00:11:01.249Z,817.69
2017-05-11T00:11:05.680Z,817.67
2017-05-11T00:11:10.152Z,817.65
2017-05-11T00:11:14.580Z,817.65
2017-05-11T00:11:19.003Z,817.66
2017-05-11T00:11:23.316Z,817.62
2017-05-11T00:11:27.629Z,817.59
2017-05-11T00:11:32.052Z,817.64
2017-05-11T00:11:36.361Z,817.64
2017-05-11T00:11:40.799Z,817.61
2017-05-11T00:11:45.279Z,817.58
2017-05-11T00:11:49.710Z,817.62
2017-05-11T00:11:53.906Z,817.62
2017-05-11T00:11:58.334Z,817.58
2017-05-11T00:12:03.017Z,817.59
2017-05-11T00:12:07.444Z,817.57
2017-05-11T00:12:11.881Z,817.57
2017-05-11T00:12:16.314Z,817.53
2017-05-11T00:12:20.740Z,817.56
2017-05-11T00:12:25.169Z,817.57
2017-05-11T00:12:29.639Z,817.59
2017-05-11T00:12:33.838Z,817.59
2017-05-11T00:12:38.277Z,817.57
2017-05-11T00:12:42.711Z,817.51
2017-05-11T00:12:47.139Z,817.53
2017-05-11T00:12:51.586Z,817.54
2017-05-11T00:12:56.009Z,817.53
2017-05-11T00:13:00.444Z,817.53
2017-05-11T00:13:05.020Z,817.51
2017-05-11T00:13:09.461Z,817.51
2017-05-11T00:13:13.895Z,817.49
2017-05-11T00:13:18.326Z,817.5
2017-05-11T00:13:22.761Z,817.46
2017-05-11T00:13:27.195Z,817.53
2017-05-11T00:13:31.658Z,817.49
2017-05-11T00:13:36.086Z,817.49
2017-05-11T00:13:40.517Z,817.5
2017-05-11T00:13:44.859Z,817.47
2017-05-11T00:13:49.284Z,817.45
2017-05-11T00:13:53.598Z,817.46
2017-05-11T00:13:58.031Z,817.51
2017-05-11T00:14:02.709Z,817.48
2017-05-11T00:14:07.139Z,817.45
2017-05-11T00:14:11.338Z,817.46
2017-05-11T00:14:15.820Z,817.43
2017-05-11T00:14:20.260Z,817.42
2017-05-11T00:14:24.691Z,817.41
2017-05-11T00:14:29.046Z,817.44
2017-05-11T00:14:33.470Z,817.47
2017-05-11T00:14:37.540Z,817.44
2017-05-11T00:14:41.849Z,817.43
2017-05-11T00:14:46.164Z,817.44
2017-05-11T00:14:50.596Z,817.4
2017-05-11T00:14:55.022Z,817.43
2017-05-11T00:14:59.459Z,817.42
2017-05-11T00:15:03.776Z,817.45
2017-05-11T00:15:08.202Z,817.43
2017-05-11T00:15:12.634Z,817.4
2017-05-11T00:15:17.069Z,817.45
2017-05-11T00:15:21.534Z,817.43
2017-05-11T00:15:25.851Z,817.45
2017-05-11T00:15:30.274Z,817.39
2017-05-11T00:15:34.582Z,817.41
2017-05-11T00:15:39.012Z,817.41
2017-05-11T00:15:43.445Z,817.44
2017-05-11T00:15:47.872Z,817.44
2017-05-11T00:15:52.183Z,817.4
2017-05-11T00:15:56.529Z,817.43
2017-05-11T00:16:00.951Z,817.45
2017-05-11T00:16:05.592Z,817.42
2017-05-11T00:16:09.670Z,817.45
2017-05-11T00:16:14.092Z,817.46
2017-05-11T00:16:18.518Z,817.44
2017-05-11T00:16:22.949Z,817.44
2017-05-11T00:16:27.261Z,817.42
2017-05-11T00:16:31.702Z,817.46
2017-05-11T00:16:36.130Z,817.45
2017-05-11T00:16:40.556Z,817.43
2017-05-11T00:16:44.986Z,817.43
2017-05-11T00:16:49.415Z,817.46
2017-05-11T00:16:53.728Z,817.49
2017-05-11T00:16:58.194Z,817.45
2017-05-11T00:17:02.824Z,817.46
2017-05-11T00:17:07.257Z,817.43
2017-05-11T00:17:11.571Z,817.42
2017-05-11T00:17:15.998Z,817.4
2017-05-11T00:17:20.318Z,817.42
2017-05-11T00:17:24.516Z,817.43
2017-05-11T00:17:28.942Z,817.42
2017-05-11T00:17:33.376Z,817.43
2017-05-11T00:17:37.809Z,817.45
2017-05-11T00:17:42.295Z,817.48
2017-05-11T00:17:46.721Z,817.45
2017-05-11T00:17:51.146Z,817.44
2017-05-11T00:17:55.577Z,817.45
2017-05-11T00:18:00.002Z,817.48
2017-05-11T00:18:04.682Z,817.48
2017-05-11T00:18:09.114Z,817.46
2017-05-11T00:18:13.434Z,817.48
2017-05-11T00:18:17.860Z,817.45
2017-05-11T00:18:22.172Z,817.48
2017-05-11T00:18:26.635Z,817.47
2017-05-11T00:18:31.065Z,817.48
2017-05-11T00:18:35.495Z,817.43
2017-05-11T00:18:39.809Z,817.46
2017-05-11T00:18:44.252Z,817.48
2017-05-11T00:18:48.724Z,817.49
2017-05-11T00:18:53.171Z,817.48
2017-05-11T00:18:57.485Z,817.48
2017-05-11T00:19:01.959Z,817.49
2017-05-11T00:19:06.147Z,817.46
2017-05-11T00:19:10.451Z,817.49
2017-05-11T00:19:14.895Z,817.49
2017-05-11T00:19:19.329Z,817.5
2017-05-11T00:19:23.781Z,817.49
2017-05-11T00:19:28.209Z,817.51
2017-05-11T00:19:32.632Z,817.44
2017-05-11T00:19:37.065Z,817.46
2017-05-11T00:19:41.381Z,817.46
2017-05-11T00:19:45.809Z,817.42
2017-05-11T00:19:50.115Z,817.46
2017-05-11T00:19:54.554Z,817.49
2017-05-11T00:19:58.977Z,817.47
2017-05-11T00:20:03.468Z,817.48
2017-05-11T00:20:07.662Z,817.49
2017-05-11T00:20:12.134Z,817.51
2017-05-11T00:20:16.556Z,817.51
2017-05-11T00:20:20.983Z,817.5
2017-05-11T00:20:25.416Z,817.48
2017-05-11T00:20:29.852Z,817.5
2017-05-11T00:20:34.270Z,817.48
2017-05-11T00:20:38.700Z,817.47
2017-05-11T00:20:43.024Z,817.47
2017-05-11T00:20:47.458Z,817.43
2017-05-11T00:20:51.783Z,817.48
2017-05-11T00:20:56.221Z,817.49
2017-05-11T00:21:00.652Z,817.51
2017-05-11T00:21:05.075Z,817.51
2017-05-11T00:21:09.509Z,817.5
2017-05-11T00:21:13.855Z,817.5
2017-05-11T00:21:18.283Z,817.51
2017-05-11T00:21:22.711Z,817.52
2017-05-11T00:21:27.135Z,817.52
2017-05-11T00:21:31.581Z,817.45
2017-05-11T00:21:36.007Z,817.49
2017-05-11T00:21:40.433Z,817.49
2017-05-11T00:21:44.629Z,817.49
2017-05-11T00:21:49.058Z,817.56
2017-05-11T00:21:53.254Z,817.57
2017-05-11T00:21:57.562Z,817.54
2017-05-11T00:22:01.994Z,817.52
2017-05-11T00:22:06.418Z,817.56
2017-05-11T00:22:10.844Z,817.51
2017-05-11T00:22:15.274Z,817.54
2017-05-11T00:22:19.594Z,817.56
2017-05-11T00:22:24.037Z,817.54
2017-05-11T00:22:28.342Z,817.56
2017-05-11T00:22:32.771Z,817.58
2017-05-11T00:22:37.094Z,817.54
2017-05-11T00:22:41.406Z,817.55
2017-05-11T00:22:45.831Z,817.6
2017-05-11T00:22:50.257Z,817.54
2017-05-11T00:22:54.572Z,817.58
2017-05-11T00:22:59.041Z,817.58
2017-05-11T00:23:03.354Z,817.58
2017-05-11T00:23:07.670Z,817.56
2017-05-11T00:23:12.103Z,817.55
2017-05-11T00:23:16.587Z,817.55
2017-05-11T00:23:21.023Z,817.57
2017-05-11T00:23:25.456Z,817.59
2017-05-11T00:23:29.767Z,817.56
2017-05-11T00:23:34.202Z,817.56
2017-05-11T00:23:38.388Z,817.56
2017-05-11T00:23:42.837Z,817.58
2017-05-11T00:23:47.278Z,817.53
2017-05-11T00:23:51.703Z,817.54
2017-05-11T00:23:56.021Z,817.57
2017-05-11T00:24:00.502Z,817.57
2017-05-11T00:24:04.931Z,817.57
2017-05-11T00:24:09.237Z,817.57
2017-05-11T00:24:13.667Z,817.58
2017-05-11T00:24:18.099Z,817.56
2017-05-11T00:24:22.429Z,817.59
2017-05-11T00:24:26.860Z,817.56
2017-05-11T00:24:31.170Z,817.55
2017-05-11T00:24:35.637Z,817.62
2017-05-11T00:24:40.069Z,817.56
2017-05-11T00:24:44.496Z,817.59
2017-05-11T00:24:48.934Z,817.6
2017-05-11T00:24:53.405Z,817.6
2017-05-11T00:24:57.840Z,817.61
2017-05-11T00:25:02.670Z,817.59
2017-05-11T00:25:06.978Z,817.59
2017-05-11T00:25:11.406Z,817.56
2017-05-11T00:25:15.840Z,817.62
2017-05-11T00:25:20.272Z,817.58
2017-05-11T00:25:24.699Z,817.58
2017-05-11T00:25:29.125Z,817.59
2017-05-11T00:25:33.430Z,817.6
2017-05-11T00:25:37.863Z,817.58
2017-05-11T00:25:42.299Z,817.62
2017-05-11T00:25:46.604Z,817.57
2017-05-11T00:25:51.030Z,817.61
2017-05-11T00:25:55.335Z,817.58
2017-05-11T00:25:59.769Z,817.57
2017-05-11T00:26:04.394Z,817.57
2017-05-11T00:26:08.582Z,817.57
2017-05-11T00:26:12.892Z,817.56
2017-05-11T00:26:17.321Z,817.56
2017-05-11T00:26:21.632Z,817.58
2017-05-11T00:26:25.940Z,817.53
2017-05-11T00:26:30.369Z,817.53
2017-05-11T00:26:34.794Z,817.54
2017-05-11T00:26:39.219Z,817.55
2017-05-11T00:26:43.650Z,817.56
2017-05-11T00:26:48.086Z,817.56
2017-05-11T00:26:52.512Z,817.58
2017-05-11T00:26:56.941Z,817.56
2017-05-11T00:27:01.372Z,817.56
2017-05-11T00:27:05.678Z,817.53
2017-05-11T00:27:10.106Z,817.55
2017-05-11T00:27:14.413Z,817.54
2017-05-11T00:27:18.729Z,817.5
2017-05-11T00:27:23.038Z,817.51
2017-05-11T00:27:27.460Z,817.55
2017-05-11T00:27:31.887Z,817.52
2017-05-11T00:27:36.334Z,817.53
2017-05-11T00:27:40.766Z,817.54
2017-05-11T00:27:45.082Z,817.5
2017-05-11T00:27:49.508Z,817.51
2017-05-11T00:27:53.819Z,817.51
2017-05-11T00:27:58.251Z,817.51
2017-05-11T00:28:02.861Z,817.51
2017-05-11T00:28:07.052Z,817.49
2017-05-11T00:28:11.247Z,817.51
2017-05-11T00:28:15.683Z,817.49
2017-05-11T00:28:20.116Z,817.49
2017-05-11T00:28:24.553Z,817.48
2017-05-11T00:28:28.992Z,817.47
2017-05-11T00:28:33.423Z,817.48
2017-05-11T00:28:37.856Z,817.48
2017-05-11T00:28:42.284Z,817.5
2017-05-11T00:28:46.714Z,817.49
2017-05-11T00:28:51.151Z,817.48
2017-05-11T00:28:55.459Z,817.47
2017-05-11T00:28:59.543Z,817.48
2017-05-11T00:29:04.222Z,817.48
2017-05-11T00:29:08.561Z,817.46
2017-05-11T00:29:12.871Z,817.45
2017-05-11T00:29:17.306Z,817.44
2017-05-11T00:29:21.626Z,817.44
2017-05-11T00:29:26.104Z,817.45
2017-05-11T00:29:30.412Z,817.47
2017-05-11T00:29:34.844Z,817.45
2017-05-11T00:29:39.270Z,817.48
2017-05-11T00:29:43.700Z,817.46
2017-05-11T00:29:48.171Z,817.49
2017-05-11T00:29:52.243Z,817.47
2017-05-11T00:29:56.550Z,817.44
2017-05-11T00:30:00.874Z,817.46
2017-05-11T00:30:05.190Z,817.44
2017-05-11T00:30:09.377Z,817.46
2017-05-11T00:30:13.804Z,817.47
2017-05-11T00:30:18.235Z,817.44
2017-05-11T00:30:22.547Z,817.47
2017-05-11T00:30:26.977Z,817.48
2017-05-11T00:30:31.413Z,817.47
2017-05-11T00:30:35.886Z,817.43
2017-05-11T00:30:40.310Z,817.45
2017-05-11T00:30:44.623Z,817.51
2017-05-11T00:30:49.092Z,817.46
2017-05-11T00:30:53.523Z,817.46
2017-05-11T00:30:57.949Z,817.49
2017-05-11T00:31:02.396Z,817.46
2017-05-11T00:31:06.825Z,817.48
2017-05-11T00:31:11.143Z,817.45
2017-05-11T00:31:15.630Z,817.47
2017-05-11T00:31:20.065Z,817.47
2017-05-11T00:31:24.527Z,817.49
2017-05-11T00:31:28.966Z,817.5
2017-05-11T00:31:33.278Z,817.47
2017-05-11T00:31:37.586Z,817.49
2017-05-11T00:31:42.021Z,817.47
2017-05-11T00:31:46.215Z,817.47
2017-05-11T00:31:50.642Z,817.47
2017-05-11T00:31:54.839Z,817.46
2017-05-11T00:31:59.156Z,817.46
2017-05-11T00:32:03.583Z,817.47
2017-05-11T00:32:07.896Z,817.5
2017-05-11T00:32:12.223Z,817.47
2017-05-11T00:32:16.531Z,817.47
2017-05-11T00:32:20.960Z,817.42
2017-05-11T00:32:25.400Z,817.46
2017-05-11T00:32:29.838Z,817.47
2017-05-11T00:32:34.270Z,817.46
2017-05-11T00:32:38.703Z,817.45
2017-05-11T00:32:43.138Z,817.46
2017-05-11T00:32:47.628Z,817.47
2017-05-11T00:32:51.941Z,817.46
2017-05-11T00:32:56.257Z,817.46
2017-05-11T00:33:00.696Z,817.48
2017-05-11T00:33:05.137Z,817.48
2017-05-11T00:33:09.458Z,817.43
2017-05-11T00:33:13.884Z,817.44
2017-05-11T00:33:18.307Z,817.42
2017-05-11T00:33:22.622Z,817.43
2017-05-11T00:33:27.064Z,817.44
2017-05-11T00:33:31.491Z,817.48
2017-05-11T00:33:35.692Z,817.47
2017-05-11T00:33:40.124Z,817.48
2017-05-11T00:33:44.569Z,817.46
2017-05-11T00:33:48.996Z,817.45
2017-05-11T00:33:52.956Z,817.45
2017-05-11T00:33:57.269Z,817.46
2017-05-11T00:34:01.794Z,817.44
2017-05-11T00:34:06.218Z,817.45
2017-05-11T00:34:10.544Z,817.46
2017-05-11T00:34:14.857Z,817.45
2017-05-11T00:34:19.330Z,817.45
2017-05-11T00:34:23.526Z,817.42
2017-05-11T00:34:27.958Z,817.44
2017-05-11T00:34:32.269Z,817.45
2017-05-11T00:34:36.625Z,817.44
2017-05-11T00:34:41.056Z,817.43
2017-05-11T00:34:45.369Z,817.43
2017-05-11T00:34:49.799Z,817.4
2017-05-11T00:34:53.879Z,817.41
2017-05-11T00:34:58.501Z,817.38
2017-05-11T00:35:02.927Z,817.44
2017-05-11T00:35:07.237Z,817.43
2017-05-11T00:35:11.546Z,817.43
2017-05-11T00:35:16.008Z,817.4
2017-05-11T00:35:20.203Z,817.41
2017-05-11T00:35:24.630Z,817.4
2017-05-11T00:35:29.064Z,817.43
2017-05-11T00:35:33.534Z,817.39
2017-05-11T00:35:37.960Z,817.4
2017-05-11T00:35:42.389Z,817.41
2017-05-11T00:35:46.821Z,817.42
2017-05-11T00:35:51.286Z,817.39
2017-05-11T00:35:55.593Z,817.42
2017-05-11T00:36:00.019Z,817.4
2017-05-11T00:36:04.801Z,817.39
2017-05-11T00:36:09.147Z,817.41
2017-05-11T00:36:13.573Z,817.36
2017-05-11T00:36:17.999Z,817.4
2017-05-11T00:36:22.434Z,817.39
2017-05-11T00:36:26.863Z,817.39
2017-05-11T00:36:31.292Z,817.4
2017-05-11T00:36:35.725Z,817.41
2017-05-11T00:36:40.218Z,817.35
2017-05-11T00:36:44.525Z,817.39
2017-05-11T00:36:48.719Z,817.43
2017-05-11T00:36:53.163Z,817.41
2017-05-11T00:36:57.471Z,817.41
2017-05-11T00:37:02.060Z,817.41
2017-05-11T00:37:06.366Z,817.37
2017-05-11T00:37:10.684Z,817.41
2017-05-11T00:37:15.114Z,817.41
2017-05-11T00:37:19.543Z,817.39
2017-05-11T00:37:23.741Z,817.44
2017-05-11T00:37:28.178Z,817.43
2017-05-11T00:37:32.609Z,817.39
2017-05-11T00:37:37.043Z,817.41
2017-05-11T00:37:41.495Z,817.35
2017-05-11T00:37:45.924Z,817.39
2017-05-11T00:37:50.241Z,817.41
2017-05-11T00:37:54.595Z,817.39
2017-05-11T00:37:59.019Z,817.41
2017-05-11T00:38:03.379Z,817.44
2017-05-11T00:38:07.690Z,817.41
2017-05-11T00:38:12.005Z,817.41
2017-05-11T00:38:16.436Z,817.43
2017-05-11T00:38:20.876Z,817.4
2017-05-11T00:38:25.308Z,817.42
2017-05-11T00:38:29.745Z,817.44
2017-05-11T00:38:34.174Z,817.4
2017-05-11T00:38:38.601Z,817.41
2017-05-11T00:38:43.028Z,817.41
2017-05-11T00:38:47.464Z,817.42
2017-05-11T00:38:51.774Z,817.42
2017-05-11T00:38:56.093Z,817.43
2017-05-11T00:39:00.526Z,817.4
2017-05-11T00:39:05.153Z,817.39
2017-05-11T00:39:09.589Z,817.39
2017-05-11T00:39:14.016Z,817.42
2017-05-11T00:39:18.459Z,817.39
2017-05-11T00:39:22.778Z,817.38
2017-05-11T00:39:27.211Z,817.38
2017-05-11T00:39:31.645Z,817.39
2017-05-11T00:39:36.079Z,817.39
2017-05-11T00:39:40.534Z,817.35
2017-05-11T00:39:44.964Z,817.34
2017-05-11T00:39:49.395Z,817.37
2017-05-11T00:39:53.721Z,817.39
2017-05-11T00:39:58.455Z,817.38
2017-05-11T00:40:02.892Z,817.38
2017-05-11T00:40:07.210Z,817.38
2017-05-11T00:40:11.556Z,817.36
2017-05-11T00:40:15.980Z,817.36
2017-05-11T00:40:20.411Z,817.36
2017-05-11T00:40:24.834Z,817.34
2017-05-11T00:40:29.261Z,817.36
2017-05-11T00:40:33.692Z,817.36
2017-05-11T00:40:38.120Z,817.35
2017-05-11T00:40:42.553Z,817.33
2017-05-11T00:40:46.982Z,817.3
2017-05-11T00:40:51.180Z,817.28
2017-05-11T00:40:55.495Z,817.3
2017-05-11T00:40:59.920Z,817.32
2017-05-11T00:41:04.343Z,817.33
2017-05-11T00:41:08.768Z,817.35
2017-05-11T00:41:13.203Z,817.33
2017-05-11T00:41:17.632Z,817.36
2017-05-11T00:41:21.828Z,817.32
2017-05-11T00:41:26.136Z,817.34
2017-05-11T00:41:30.571Z,817.35
2017-05-11T00:41:34.998Z,817.34
2017-05-11T00:41:39.189Z,817.35
2017-05-11T00:41:43.617Z,817.37
2017-05-11T00:41:48.046Z,817.38
2017-05-11T00:41:52.473Z,817.37
2017-05-11T00:41:56.778Z,817.33
2017-05-11T00:42:01.090Z,817.35
2017-05-11T00:42:05.410Z,817.36
2017-05-11T00:42:09.601Z,817.33
2017-05-11T00:42:13.913Z,817.35
2017-05-11T00:42:18.337Z,817.32
2017-05-11T00:42:22.652Z,817.37
2017-05-11T00:42:27.009Z,817.36
2017-05-11T00:42:31.433Z,817.36
2017-05-11T00:42:35.748Z,817.35
2017-05-11T00:42:40.182Z,817.38
2017-05-11T00:42:44.533Z,817.38
2017-05-11T00:42:48.963Z,817.36
2017-05-11T00:42:53.279Z,817.36
2017-05-11T00:42:57.725Z,817.38
2017-05-11T00:43:02.138Z,817.37
2017-05-11T00:43:06.573Z,817.35
2017-05-11T00:43:10.887Z,817.37
2017-05-11T00:43:15.318Z,817.38
2017-05-11T00:43:19.752Z,817.34
2017-05-11T00:43:24.068Z,817.37
2017-05-11T00:43:28.502Z,817.35
2017-05-11T00:43:32.809Z,817.39
2017-05-11T00:43:37.240Z,817.33
2017-05-11T00:43:41.673Z,817.32
2017-05-11T00:43:46.024Z,817.4
2017-05-11T00:43:50.332Z,817.39
2017-05-11T00:43:54.523Z,817.38
2017-05-11T00:43:58.951Z,817.39
2017-05-11T00:44:03.683Z,817.34
2017-05-11T00:44:08.116Z,817.36
2017-05-11T00:44:12.431Z,817.36
2017-05-11T00:44:16.865Z,817.42
2017-05-11T00:44:21.113Z,817.41
2017-05-11T00:44:25.538Z,817.41
2017-05-11T00:44:29.963Z,817.4
2017-05-11T00:44:34.392Z,817.43
2017-05-11T00:44:38.825Z,817.45
2017-05-11T00:44:43.260Z,817.43
2017-05-11T00:44:47.573Z,817.43
2017-05-11T00:44:51.762Z,817.4
2017-05-11T00:44:56.080Z,817.44
2017-05-11T00:45:00.554Z,817.45
2017-05-11T00:45:04.915Z,817.46
2017-05-11T00:45:09.217Z,817.44
2017-05-11T00:45:13.653Z,817.37
2017-05-11T00:45:18.084Z,817.38
2017-05-11T00:45:22.510Z,817.42
2017-05-11T00:45:26.824Z,817.41
2017-05-11T00:45:31.136Z,817.41
2017-05-11T00:45:35.568Z,817.43
2017-05-11T00:45:39.995Z,817.41
2017-05-11T00:45:44.435Z,817.42
2017-05-11T00:45:48.859Z,817.4
2017-05-11T00:45:53.169Z,817.39
2017-05-11T00:45:57.477Z,817.38
2017-05-11T00:46:01.914Z,817.41
2017-05-11T00:46:06.226Z,817.35
2017-05-11T00:46:10.663Z,817.42
2017-05-11T00:46:15.089Z,817.41
2017-05-11T00:46:19.516Z,817.43
2017-05-11T00:46:23.960Z,817.42
2017-05-11T00:46:28.386Z,817.42
2017-05-11T00:46:32.809Z,817.4
2017-05-11T00:46:37.286Z,817.4
2017-05-11T00:46:41.709Z,817.37
2017-05-11T00:46:46.019Z,817.37
2017-05-11T00:46:50.445Z,817.4
2017-05-11T00:46:54.638Z,817.38
2017-05-11T00:46:59.068Z,817.39
2017-05-11T00:47:03.502Z,817.39
2017-05-11T00:47:07.810Z,817.38
2017-05-11T00:47:12.133Z,817.39
2017-05-11T00:47:16.566Z,817.4
2017-05-11T00:47:20.997Z,817.36
2017-05-11T00:47:25.192Z,817.36
2017-05-11T00:47:29.623Z,817.37
2017-05-11T00:47:33.934Z,817.36
2017-05-11T00:47:38.370Z,817.38
2017-05-11T00:47:42.795Z,817.38
2017-05-11T00:47:47.123Z,817.34
2017-05-11T00:47:51.556Z,817.38
2017-05-11T00:47:55.872Z,817.38
2017-05-11T00:48:00.061Z,817.39
2017-05-11T00:48:04.793Z,817.38
2017-05-11T00:48:09.105Z,817.36
2017-05-11T00:48:13.534Z,817.36
2017-05-11T00:48:17.965Z,817.35
2017-05-11T00:48:22.294Z,817.35
2017-05-11T00:48:26.726Z,817.38
2017-05-11T00:48:31.047Z,817.39
2017-05-11T00:48:35.490Z,817.36
2017-05-11T00:48:39.925Z,817.35
2017-05-11T00:48:44.354Z,817.36
2017-05-11T00:48:48.783Z,817.36
2017-05-11T00:48:53.103Z,817.34
2017-05-11T00:48:57.537Z,817.35
2017-05-11T00:49:01.967Z,817.34
2017-05-11T00:49:06.274Z,817.34
2017-05-11T00:49:10.707Z,817.31
2017-05-11T00:49:15.140Z,817.34
2017-05-11T00:49:19.572Z,817.34
2017-05-11T00:49:24.016Z,817.33
2017-05-11T00:49:28.450Z,817.32
2017-05-11T00:49:32.876Z,817.36
2017-05-11T00:49:37.305Z,817.3
2017-05-11T00:49:41.740Z,817.32
2017-05-11T00:49:45.816Z,817.3
2017-05-11T00:49:50.243Z,817.33
2017-05-11T00:49:54.440Z,817.32
2017-05-11T00:49:58.748Z,817.32
2017-05-11T00:50:03.273Z,817.31
2017-05-11T00:50:07.698Z,817.3
2017-05-11T00:50:12.011Z,817.3
2017-05-11T00:50:16.439Z,817.3
2017-05-11T00:50:20.861Z,817.3
2017-05-11T00:50:25.173Z,817.27
2017-05-11T00:50:29.606Z,817.32
2017-05-11T00:50:34.032Z,817.27
2017-05-11T00:50:38.463Z,817.31
2017-05-11T00:50:42.895Z,817.28
2017-05-11T00:50:47.326Z,817.27
2017-05-11T00:50:51.760Z,817.22
2017-05-11T00:50:55.951Z,817.23
2017-05-11T00:51:00.410Z,817.23
2017-05-11T00:51:04.844Z,817.22
2017-05-11T00:51:09.270Z,817.24
2017-05-11T00:51:13.703Z,817.22
2017-05-11T00:51:18.128Z,817.23
2017-05-11T00:51:22.557Z,817.26
2017-05-11T00:51:26.982Z,817.25
2017-05-11T00:51:31.406Z,817.23
2017-05-11T00:51:35.727Z,817.2
2017-05-11T00:51:40.151Z,817.21
2017-05-11T00:51:44.580Z,817.22
2017-05-11T00:51:49.001Z,817.2
2017-05-11T00:51:53.314Z,817.19
2017-05-11T00:51:57.630Z,817.19
2017-05-11T00:52:02.252Z,817.18
2017-05-11T00:52:06.695Z,817.21
2017-05-11T00:52:10.898Z,817.16
2017-05-11T00:52:15.213Z,817.16
2017-05-11T00:52:19.650Z,817.15
2017-05-11T00:52:23.988Z,817.15
2017-05-11T00:52:28.296Z,817.15
2017-05-11T00:52:32.721Z,817.19
2017-05-11T00:52:37.038Z,817.15
2017-05-11T00:52:41.460Z,817.13
2017-05-11T00:52:45.889Z,817.09
2017-05-11T00:52:50.322Z,817.06
2017-05-11T00:52:54.639Z,817.11
2017-05-11T00:52:59.074Z,817.09
2017-05-11T00:53:03.485Z,817.13
2017-05-11T00:53:07.914Z,817.14
2017-05-11T00:53:12.114Z,817.1
2017-05-11T00:53:16.580Z,817.09
2017-05-11T00:53:20.896Z,817.11
2017-05-11T00:53:25.210Z,817.09
2017-05-11T00:53:29.677Z,817.08
2017-05-11T00:53:33.997Z,817.09
2017-05-11T00:53:38.422Z,817.09
2017-05-11T00:53:42.861Z,817.1
2017-05-11T00:53:47.285Z,817.09
2017-05-11T00:53:51.612Z,817.11
2017-05-11T00:53:55.922Z,817.1
2017-05-11T00:54:00.361Z,817.07
2017-05-11T00:54:04.884Z,817.08
2017-05-11T00:54:09.082Z,817.07
2017-05-11T00:54:13.514Z,817.07
2017-05-11T00:54:17.828Z,817.07
2017-05-11T00:54:22.029Z,817.08
2017-05-11T00:54:26.459Z,817.06
2017-05-11T00:54:30.771Z,817.09
2017-05-11T00:54:35.084Z,817.02
2017-05-11T00:54:39.516Z,817.07
2017-05-11T00:54:43.821Z,817.03
2017-05-11T00:54:48.249Z,817.03
2017-05-11T00:54:52.685Z,817.02
2017-05-11T00:54:57.011Z,817.07